sensor_id;sensor_type;location;lat;lon;timestamp;pressure;altitude;pressure_sealevel;temperature;humidity
59419;BME280;45224;50.904;6.038;2023-10-31T00:00:46;98006.81;;;10.73;100.00
59419;BME280;45224;50.904;6.038;2023-10-31T00:02:16;98004.03;;;10.80;100.00
59419;BME280;45224;50.904;6.038;2023-10-31T00:03:47;98005.75;;;10.81;100.00
59419;BME280;45224;50.904;6.038;2023-10-31T00:05:17;97994.72;;;10.75;100.00
59419;BME280;45224;50.904;6.038;2023-10-31T00:06:48;98008.34;;;10.81;100.00
59419;BME280;45224;50.904;6.038;2023-10-31T00:08:18;98012.06;;;10.70;100.00
59419;BME280;45224;50.904;6.038;2023-10-31T00:09:49;98012.72;;;10.77;100.00
59419;BME280;45224;50.904;6.038;2023-10-31T00:11:19;98009.31;;;10.76;100.00
59419;BME280;45224;50.904;6.038;2023-10-31T00:12:49;98010.09;;;10.78;100.00
59419;BME280;45224;50.904;6.038;2023-10-31T00:14:20;98020.25;;;10.85;100.00
59419;BME280;45224;50.904;6.038;2023-10-31T00:15:51;98011.13;;;10.73;100.00
59419;BME280;45224;50.904;6.038;2023-10-31T00:17:21;98022.69;;;10.61;100.00
59419;BME280;45224;50.904;6.038;2023-10-31T00:18:51;98018.41;;;10.60;100.00
59419;BME280;45224;50.904;6.038;2023-10-31T00:20:22;98012.44;;;10.58;100.00
59419;BME280;45224;50.904;6.038;2023-10-31T00:21:52;98012.25;;;10.64;100.00
59419;BME280;45224;50.904;6.038;2023-10-31T00:23:23;98012.88;;;10.72;100.00
59419;BME280;45224;50.904;6.038;2023-10-31T00:24:53;98010.47;;;10.66;100.00
59419;BME280;45224;50.904;6.038;2023-10-31T00:26:24;98020.06;;;10.63;100.00
59419;BME280;45224;50.904;6.038;2023-10-31T00:27:57;98026.06;;;10.63;100.00
59419;BME280;45224;50.904;6.038;2023-10-31T00:29:27;98027.56;;;10.70;100.00
59419;BME280;45224;50.904;6.038;2023-10-31T00:30:58;98024.19;;;10.68;100.00
59419;BME280;45224;50.904;6.038;2023-10-31T00:32:31;98010.56;;;10.63;100.00
59419;BME280;45224;50.904;6.038;2023-10-31T00:34:02;98020.91;;;10.63;100.00
59419;BME280;45224;50.904;6.038;2023-10-31T00:35:32;98024.16;;;10.70;100.00
59419;BME280;45224;50.904;6.038;2023-10-31T00:37:03;98025.81;;;10.72;100.00
59419;BME280;45224;50.904;6.038;2023-10-31T00:38:33;98031.16;;;10.66;100.00
59419;BME280;45224;50.904;6.038;2023-10-31T00:40:05;98024.34;;;10.62;100.00
59419;BME280;45224;50.904;6.038;2023-10-31T00:41:38;98028.59;;;10.65;100.00
59419;BME280;45224;50.904;6.038;2023-10-31T00:43:09;98032.81;;;10.67;100.00
59419;BME280;45224;50.904;6.038;2023-10-31T00:44:39;98031.34;;;10.58;100.00
59419;BME280;45224;50.904;6.038;2023-10-31T00:46:10;98032.94;;;10.64;100.00
59419;BME280;45224;50.904;6.038;2023-10-31T00:47:40;98030.44;;;10.61;100.00
59419;BME280;45224;50.904;6.038;2023-10-31T00:49:11;98044.22;;;10.60;100.00
59419;BME280;45224;50.904;6.038;2023-10-31T00:50:43;98045.31;;;10.53;100.00
59419;BME280;45224;50.904;6.038;2023-10-31T00:52:14;98035.72;;;10.56;100.00
59419;BME280;45224;50.904;6.038;2023-10-31T00:53:45;98040.03;;;10.56;100.00
59419;BME280;45224;50.904;6.038;2023-10-31T00:55:16;98033.19;;;10.55;100.00
59419;BME280;45224;50.904;6.038;2023-10-31T00:56:46;98040.81;;;10.59;100.00
59419;BME280;45224;50.904;6.038;2023-10-31T00:58:16;98047.16;;;10.48;100.00
59419;BME280;45224;50.904;6.038;2023-10-31T00:59:47;98041.91;;;10.51;100.00
59419;BME280;45224;50.904;6.038;2023-10-31T01:01:17;98053.78;;;10.58;100.00
59419;BME280;45224;50.904;6.038;2023-10-31T01:02:48;98051.19;;;10.58;100.00
59419;BME280;45224;50.904;6.038;2023-10-31T01:04:18;98051.13;;;10.61;100.00
59419;BME280;45224;50.904;6.038;2023-10-31T01:05:49;98046.91;;;10.57;100.00
59419;BME280;45224;50.904;6.038;2023-10-31T01:07:19;98052.16;;;10.54;100.00
59419;BME280;45224;50.904;6.038;2023-10-31T01:08:49;98046.91;;;10.57;100.00
59419;BME280;45224;50.904;6.038;2023-10-31T01:10:20;98058.03;;;10.59;100.00
59419;BME280;45224;50.904;6.038;2023-10-31T01:11:51;98060.81;;;10.53;100.00
59419;BME280;45224;50.904;6.038;2023-10-31T01:13:22;98066.19;;;10.45;100.00
59419;BME280;45224;50.904;6.038;2023-10-31T01:14:52;98064.44;;;10.46;100.00
59419;BME280;45224;50.904;6.038;2023-10-31T01:16:23;98065.50;;;10.38;100.00
59419;BME280;45224;50.904;6.038;2023-10-31T01:17:53;98083.31;;;10.48;100.00
59419;BME280;45224;50.904;6.038;2023-10-31T01:19:24;98069.69;;;10.43;100.00
59419;BME280;45224;50.904;6.038;2023-10-31T01:20:55;98069.91;;;10.33;100.00
59419;BME280;45224;50.904;6.038;2023-10-31T01:22:25;98075.97;;;10.34;100.00
59419;BME280;45224;50.904;6.038;2023-10-31T01:23:55;98072.56;;;10.30;100.00
59419;BME280;45224;50.904;6.038;2023-10-31T01:25:26;98072.75;;;10.24;100.00
59419;BME280;45224;50.904;6.038;2023-10-31T01:26:56;98074.25;;;10.31;100.00
59419;BME280;45224;50.904;6.038;2023-10-31T01:28:27;98068.28;;;10.29;100.00
59419;BME280;45224;50.904;6.038;2023-10-31T01:29:57;98064.81;;;10.30;100.00
59419;BME280;45224;50.904;6.038;2023-10-31T01:31:28;98070.84;;;10.32;100.00
59419;BME280;45224;50.904;6.038;2023-10-31T01:32:58;98069.03;;;10.34;100.00
59419;BME280;45224;50.904;6.038;2023-10-31T01:34:29;98070.78;;;10.34;100.00
59419;BME280;45224;50.904;6.038;2023-10-31T01:35:59;98075.97;;;10.34;100.00
59419;BME280;45224;50.904;6.038;2023-10-31T01:37:30;98082.72;;;10.38;100.00
59419;BME280;45224;50.904;6.038;2023-10-31T01:39:01;98078.50;;;10.35;100.00
59419;BME280;45224;50.904;6.038;2023-10-31T01:40:32;98076.56;;;10.44;100.00
59419;BME280;45224;50.904;6.038;2023-10-31T01:42:02;98076.72;;;10.37;100.00
59419;BME280;45224;50.904;6.038;2023-10-31T01:43:36;98081.13;;;10.34;100.00
59419;BME280;45224;50.904;6.038;2023-10-31T01:45:08;98075.84;;;10.38;100.00
59419;BME280;45224;50.904;6.038;2023-10-31T01:46:38;98078.31;;;10.41;100.00
59419;BME280;45224;50.904;6.038;2023-10-31T01:48:09;98075.09;;;10.33;100.00
59419;BME280;45224;50.904;6.038;2023-10-31T01:49:39;98085.25;;;10.39;100.00
59419;BME280;45224;50.904;6.038;2023-10-31T01:51:10;98077.59;;;10.36;100.00
59419;BME280;45224;50.904;6.038;2023-10-31T01:52:41;98079.13;;;10.44;100.00
59419;BME280;45224;50.904;6.038;2023-10-31T01:54:12;98078.41;;;10.38;100.00
59419;BME280;45224;50.904;6.038;2023-10-31T01:55:45;98087.78;;;10.43;100.00
59419;BME280;45224;50.904;6.038;2023-10-31T01:57:18;98080.81;;;10.45;100.00
59419;BME280;45224;50.904;6.038;2023-10-31T01:58:49;98080.91;;;10.41;100.00
59419;BME280;45224;50.904;6.038;2023-10-31T02:00:20;98085.88;;;10.49;100.00
59419;BME280;45224;50.904;6.038;2023-10-31T02:01:51;98081.53;;;10.51;100.00
59419;BME280;45224;50.904;6.038;2023-10-31T02:03:21;98082.56;;;10.44;100.00
59419;BME280;45224;50.904;6.038;2023-10-31T02:04:52;98084.38;;;10.40;100.00
59419;BME280;45224;50.904;6.038;2023-10-31T02:06:23;98086.81;;;10.47;100.00
59419;BME280;45224;50.904;6.038;2023-10-31T02:07:53;98087.56;;;10.50;100.00
59419;BME280;45224;50.904;6.038;2023-10-31T02:09:23;98085.88;;;10.49;100.00
59419;BME280;45224;50.904;6.038;2023-10-31T02:10:56;98085.19;;;10.43;100.00
59419;BME280;45224;50.904;6.038;2023-10-31T02:12:37;98076.41;;;10.50;100.00
59419;BME280;45224;50.904;6.038;2023-10-31T02:14:08;98075.50;;;10.51;100.00
59419;BME280;45224;50.904;6.038;2023-10-31T02:15:38;98079.84;;;10.49;100.00
59419;BME280;45224;50.904;6.038;2023-10-31T02:17:09;98081.47;;;10.53;100.00
59419;BME280;45224;50.904;6.038;2023-10-31T02:18:40;98078.97;;;10.50;100.00
59419;BME280;45224;50.904;6.038;2023-10-31T02:20:11;98079.94;;;10.46;100.00
59419;BME280;45224;50.904;6.038;2023-10-31T02:21:41;98071.31;;;10.47;100.00
59419;BME280;45224;50.904;6.038;2023-10-31T02:23:15;98075.66;;;10.45;100.00
59419;BME280;45224;50.904;6.038;2023-10-31T02:24:46;98076.41;;;10.50;100.00
59419;BME280;45224;50.904;6.038;2023-10-31T02:26:16;98075.66;;;10.45;100.00
59419;BME280;45224;50.904;6.038;2023-10-31T02:27:47;98071.38;;;10.44;100.00
59419;BME280;45224;50.904;6.038;2023-10-31T02:29:17;98074.94;;;10.39;100.00
59419;BME280;45224;50.904;6.038;2023-10-31T02:30:48;98071.50;;;10.39;100.00
59419;BME280;45224;50.904;6.038;2023-10-31T02:32:18;98073.53;;;10.26;100.00
59419;BME280;45224;50.904;6.038;2023-10-31T02:33:49;98074.13;;;10.37;100.00
59419;BME280;45224;50.904;6.038;2023-10-31T02:35:20;98068.84;;;10.42;100.00
59419;BME280;45224;50.904;6.038;2023-10-31T02:36:50;98069.13;;;10.30;100.00
59419;BME280;45224;50.904;6.038;2023-10-31T02:38:21;98068.25;;;10.32;100.00
59419;BME280;45224;50.904;6.038;2023-10-31T02:39:51;98069.25;;;10.25;100.00
59419;BME280;45224;50.904;6.038;2023-10-31T02:41:21;98062.16;;;10.33;100.00
59419;BME280;45224;50.904;6.038;2023-10-31T02:42:53;98065.63;;;10.34;100.00
59419;BME280;45224;50.904;6.038;2023-10-31T02:44:24;98069.97;;;10.30;100.00
59419;BME280;45224;50.904;6.038;2023-10-31T02:45:54;98072.66;;;10.27;100.00
59419;BME280;45224;50.904;6.038;2023-10-31T02:47:25;98065.72;;;10.29;100.00
59419;BME280;45224;50.904;6.038;2023-10-31T02:48:55;98077.69;;;10.32;100.00
59419;BME280;45224;50.904;6.038;2023-10-31T02:50:26;98076.84;;;10.33;100.00
59419;BME280;45224;50.904;6.038;2023-10-31T02:51:57;98066.66;;;10.25;100.00
59419;BME280;45224;50.904;6.038;2023-10-31T02:53:28;98070.06;;;10.27;100.00
59419;BME280;45224;50.904;6.038;2023-10-31T02:54:58;98080.41;;;10.27;100.00
59419;BME280;45224;50.904;6.038;2023-10-31T02:56:29;98071.75;;;10.28;100.00
59419;BME280;45224;50.904;6.038;2023-10-31T02:57:59;98069.97;;;10.30;100.00
59419;BME280;45224;50.904;6.038;2023-10-31T02:59:30;98066.59;;;10.28;100.00
59419;BME280;45224;50.904;6.038;2023-10-31T03:01:00;98073.47;;;10.29;100.00
59419;BME280;45224;50.904;6.038;2023-10-31T03:02:31;98073.41;;;10.32;100.00
59419;BME280;45224;50.904;6.038;2023-10-31T03:04:01;98069.94;;;10.32;100.00
59419;BME280;45224;50.904;6.038;2023-10-31T03:05:32;98071.81;;;10.25;100.00
59419;BME280;45224;50.904;6.038;2023-10-31T03:07:02;98079.41;;;10.33;100.00
59419;BME280;45224;50.904;6.038;2023-10-31T03:08:33;98079.53;;;10.27;100.00
59419;BME280;45224;50.904;6.038;2023-10-31T03:10:03;98073.53;;;10.26;100.00
59419;BME280;45224;50.904;6.038;2023-10-31T03:11:34;98085.56;;;10.27;100.00
59419;BME280;45224;50.904;6.038;2023-10-31T03:13:05;98079.50;;;10.28;100.00
59419;BME280;45224;50.904;6.038;2023-10-31T03:14:35;98077.06;;;10.22;100.00
59419;BME280;45224;50.904;6.038;2023-10-31T03:16:06;98082.94;;;10.29;100.00
59419;BME280;45224;50.904;6.038;2023-10-31T03:17:36;98076.72;;;10.37;100.00
59419;BME280;45224;50.904;6.038;2023-10-31T03:19:08;98076.78;;;10.34;100.00
59419;BME280;45224;50.904;6.038;2023-10-31T03:20:38;98080.91;;;10.41;100.00
59419;BME280;45224;50.904;6.038;2023-10-31T03:22:08;98086.88;;;10.44;100.00
59419;BME280;45224;50.904;6.038;2023-10-31T03:23:39;98089.34;;;10.48;100.00
59419;BME280;45224;50.904;6.038;2023-10-31T03:25:09;98095.38;;;10.49;100.00
59419;BME280;45224;50.904;6.038;2023-10-31T03:26:40;98094.00;;;10.35;100.00
59419;BME280;45224;50.904;6.038;2023-10-31T03:28:20;98092.28;;;10.34;100.00
59419;BME280;45224;50.904;6.038;2023-10-31T03:29:53;98094.91;;;10.31;100.00
59419;BME280;45224;50.904;6.038;2023-10-31T03:31:24;98086.97;;;10.40;100.00
59419;BME280;45224;50.904;6.038;2023-10-31T03:32:54;98093.72;;;10.45;100.00
59419;BME280;45224;50.904;6.038;2023-10-31T03:34:25;98087.72;;;10.44;100.00
59419;BME280;45224;50.904;6.038;2023-10-31T03:35:55;98097.47;;;10.34;100.00
59419;BME280;45224;50.904;6.038;2023-10-31T03:37:25;98093.91;;;10.38;100.00
59419;BME280;45224;50.904;6.038;2023-10-31T03:38:56;98090.59;;;10.33;100.00
59419;BME280;45224;50.904;6.038;2023-10-31T03:40:26;98091.47;;;10.34;100.00
59419;BME280;45224;50.904;6.038;2023-10-31T03:41:57;98107.06;;;10.28;100.00
59419;BME280;45224;50.904;6.038;2023-10-31T03:43:28;98111.97;;;10.40;100.00
59419;BME280;45224;50.904;6.038;2023-10-31T03:44:59;98110.38;;;10.34;100.00
59419;BME280;45224;50.904;6.038;2023-10-31T03:46:30;98105.94;;;10.39;100.00
59419;BME280;45224;50.904;6.038;2023-10-31T03:48:00;98106.09;;;10.33;100.00
59419;BME280;45224;50.904;6.038;2023-10-31T03:49:31;98110.41;;;10.31;100.00
59419;BME280;45224;50.904;6.038;2023-10-31T03:51:01;98104.41;;;10.32;100.00
59419;BME280;45224;50.904;6.038;2023-10-31T03:52:32;98116.41;;;10.32;100.00
59419;BME280;45224;50.904;6.038;2023-10-31T03:54:03;98117.38;;;10.29;100.00
59419;BME280;45224;50.904;6.038;2023-10-31T03:55:33;98121.59;;;10.33;100.00
59419;BME280;45224;50.904;6.038;2023-10-31T03:57:04;98120.00;;;10.28;100.00
59419;BME280;45224;50.904;6.038;2023-10-31T03:58:35;98118.31;;;10.25;100.00
59419;BME280;45224;50.904;6.038;2023-10-31T04:00:06;98126.97;;;10.24;100.00
59419;BME280;45224;50.904;6.038;2023-10-31T04:01:43;98131.31;;;10.22;100.00
59419;BME280;45224;50.904;6.038;2023-10-31T04:03:14;98127.88;;;10.21;100.00
59419;BME280;45224;50.904;6.038;2023-10-31T04:04:44;98131.31;;;10.22;100.00
59419;BME280;45224;50.904;6.038;2023-10-31T04:06:15;98133.81;;;10.25;100.00
59419;BME280;45224;50.904;6.038;2023-10-31T04:07:47;98128.97;;;10.13;100.00
59419;BME280;45224;50.904;6.038;2023-10-31T04:09:17;98129.78;;;10.15;100.00
59419;BME280;45224;50.904;6.038;2023-10-31T04:10:48;98130.50;;;10.20;100.00
59419;BME280;45224;50.904;6.038;2023-10-31T04:12:18;98133.97;;;10.19;100.00
59419;BME280;45224;50.904;6.038;2023-10-31T04:13:49;98140.91;;;10.17;100.00
59419;BME280;45224;50.904;6.038;2023-10-31T04:15:19;98135.59;;;10.23;100.00
59419;BME280;45224;50.904;6.038;2023-10-31T04:16:50;98148.50;;;10.23;100.00
59419;BME280;45224;50.904;6.038;2023-10-31T04:18:20;98139.13;;;10.19;100.00
59419;BME280;45224;50.904;6.038;2023-10-31T04:19:51;98147.78;;;10.18;100.00
59419;BME280;45224;50.904;6.038;2023-10-31T04:21:21;98148.63;;;10.18;100.00
59419;BME280;45224;50.904;6.038;2023-10-31T04:22:52;98149.47;;;10.19;100.00
59419;BME280;45224;50.904;6.038;2023-10-31T04:24:22;98155.53;;;10.18;100.00
59419;BME280;45224;50.904;6.038;2023-10-31T04:25:52;98147.72;;;10.21;100.00
59419;BME280;45224;50.904;6.038;2023-10-31T04:27:23;98160.34;;;10.32;100.00
59419;BME280;45224;50.904;6.038;2023-10-31T04:28:53;98160.38;;;10.30;100.00
59419;BME280;45224;50.904;6.038;2023-10-31T04:30:24;98164.97;;;10.19;100.00
59419;BME280;45224;50.904;6.038;2023-10-31T04:31:54;98159.97;;;10.13;100.00
59419;BME280;45224;50.904;6.038;2023-10-31T04:33:25;98154.63;;;10.19;100.00
59419;BME280;45224;50.904;6.038;2023-10-31T04:34:55;98157.09;;;10.23;100.00
59419;BME280;45224;50.904;6.038;2023-10-31T04:36:26;98166.09;;;10.07;100.00
59419;BME280;45224;50.904;6.038;2023-10-31T04:37:56;98168.44;;;10.18;100.00
59419;BME280;45224;50.904;6.038;2023-10-31T04:39:27;98169.25;;;10.20;100.00
59419;BME280;45224;50.904;6.038;2023-10-31T04:40:57;98169.09;;;10.26;100.00
59419;BME280;45224;50.904;6.038;2023-10-31T04:42:28;98166.66;;;10.20;100.00
59419;BME280;45224;50.904;6.038;2023-10-31T04:43:58;98169.91;;;10.28;100.00
59419;BME280;45224;50.904;6.038;2023-10-31T04:45:28;98175.09;;;10.27;100.00
59419;BME280;45224;50.904;6.038;2023-10-31T04:46:59;98175.28;;;10.19;100.00
59419;BME280;45224;50.904;6.038;2023-10-31T04:48:29;98187.41;;;10.17;100.00
59419;BME280;45224;50.904;6.038;2023-10-31T04:50:00;98179.63;;;10.18;100.00
59419;BME280;45224;50.904;6.038;2023-10-31T04:51:37;98192.41;;;10.23;100.00
59419;BME280;45224;50.904;6.038;2023-10-31T04:53:08;98195.06;;;10.20;100.00
59419;BME280;45224;50.904;6.038;2023-10-31T04:54:40;98197.72;;;10.17;100.00
59419;BME280;45224;50.904;6.038;2023-10-31T04:56:14;98202.88;;;10.17;100.00
59419;BME280;45224;50.904;6.038;2023-10-31T04:57:44;98204.53;;;10.21;100.00
59419;BME280;45224;50.904;6.038;2023-10-31T04:59:15;98197.72;;;10.17;100.00
59419;BME280;45224;50.904;6.038;2023-10-31T05:00:46;98205.44;;;10.18;100.00
59419;BME280;45224;50.904;6.038;2023-10-31T05:02:17;98204.53;;;10.21;100.00
59419;BME280;45224;50.904;6.038;2023-10-31T05:03:47;98201.13;;;10.19;100.00
59419;BME280;45224;50.904;6.038;2023-10-31T05:05:18;98221.00;;;10.15;100.00
59419;BME280;45224;50.904;6.038;2023-10-31T05:06:49;98216.72;;;10.16;100.00
59419;BME280;45224;50.904;6.038;2023-10-31T05:08:20;98226.09;;;10.18;100.00
59419;BME280;45224;50.904;6.038;2023-10-31T05:09:50;98224.56;;;10.11;100.00
59419;BME280;45224;50.904;6.038;2023-10-31T05:11:21;98232.09;;;10.19;100.00
59419;BME280;45224;50.904;6.038;2023-10-31T05:12:51;98226.13;;;10.17;100.00
59419;BME280;45224;50.904;6.038;2023-10-31T05:14:23;98232.03;;;10.22;100.00
59419;BME280;45224;50.904;6.038;2023-10-31T05:15:53;98233.75;;;10.23;100.00
59419;BME280;45224;50.904;6.038;2023-10-31T05:17:24;98231.84;;;10.30;100.00
59419;BME280;45224;50.904;6.038;2023-10-31T05:18:54;98232.66;;;10.32;100.00
59419;BME280;45224;50.904;6.038;2023-10-31T05:20:24;98236.13;;;10.34;100.00
59419;BME280;45224;50.904;6.038;2023-10-31T05:21:55;98237.06;;;10.28;100.00
59419;BME280;45224;50.904;6.038;2023-10-31T05:23:25;98237.00;;;10.31;100.00
59419;BME280;45224;50.904;6.038;2023-10-31T05:24:56;98242.22;;;10.28;100.00
59419;BME280;45224;50.904;6.038;2023-10-31T05:26:26;98237.00;;;10.31;100.00
59419;BME280;45224;50.904;6.038;2023-10-31T05:27:58;98240.44;;;10.30;100.00
59419;BME280;45224;50.904;6.038;2023-10-31T05:29:29;98242.16;;;10.31;100.00
59419;BME280;45224;50.904;6.038;2023-10-31T05:31:00;98249.06;;;10.32;100.00
59419;BME280;45224;50.904;6.038;2023-10-31T05:32:31;98243.88;;;10.34;100.00
59419;BME280;45224;50.904;6.038;2023-10-31T05:34:01;98246.47;;;10.32;100.00
59419;BME280;45224;50.904;6.038;2023-10-31T05:35:33;98253.31;;;10.32;100.00
59419;BME280;45224;50.904;6.038;2023-10-31T05:37:04;98254.28;;;10.29;100.00
59419;BME280;45224;50.904;6.038;2023-10-31T05:38:36;98259.63;;;10.20;100.00
59419;BME280;45224;50.904;6.038;2023-10-31T05:40:07;98256.13;;;10.24;100.00
59419;BME280;45224;50.904;6.038;2023-10-31T05:41:37;98255.16;;;10.28;100.00
59419;BME280;45224;50.904;6.038;2023-10-31T05:43:08;98263.69;;;10.30;100.00
59419;BME280;45224;50.904;6.038;2023-10-31T05:44:38;98256.81;;;10.31;100.00
59419;BME280;45224;50.904;6.038;2023-10-31T05:46:10;98264.59;;;10.29;100.00
59419;BME280;45224;50.904;6.038;2023-10-31T05:47:43;98263.81;;;10.27;100.00
59419;BME280;45224;50.904;6.038;2023-10-31T05:49:14;98262.81;;;10.31;100.00
59419;BME280;45224;50.904;6.038;2023-10-31T05:50:45;98274.19;;;10.24;100.00
59419;BME280;45224;50.904;6.038;2023-10-31T05:52:16;98268.44;;;10.13;100.00
59419;BME280;45224;50.904;6.038;2023-10-31T05:53:47;98265.78;;;10.16;100.00
59419;BME280;45224;50.904;6.038;2023-10-31T05:55:18;98276.91;;;10.18;100.00
59419;BME280;45224;50.904;6.038;2023-10-31T05:56:49;98265.69;;;10.19;100.00
59419;BME280;45224;50.904;6.038;2023-10-31T05:58:19;98277.75;;;10.18;100.00
59419;BME280;45224;50.904;6.038;2023-10-31T05:59:50;98278.66;;;10.17;100.00
59419;BME280;45224;50.904;6.038;2023-10-31T06:01:20;98275.13;;;10.20;100.00
59419;BME280;45224;50.904;6.038;2023-10-31T06:02:51;98283.97;;;10.10;100.00
59419;BME280;45224;50.904;6.038;2023-10-31T06:04:21;98289.09;;;10.13;100.00
59419;BME280;45224;50.904;6.038;2023-10-31T06:05:52;98283.97;;;10.10;100.00
59419;BME280;45224;50.904;6.038;2023-10-31T06:07:22;98288.25;;;10.11;100.00
59419;BME280;45224;50.904;6.038;2023-10-31T06:08:53;98285.53;;;10.17;100.00
59419;BME280;45224;50.904;6.038;2023-10-31T06:10:23;98296.88;;;10.11;100.00
59419;BME280;45224;50.904;6.038;2023-10-31T06:11:54;98297.69;;;10.12;100.00
59419;BME280;45224;50.904;6.038;2023-10-31T06:13:24;98303.72;;;10.12;100.00
59419;BME280;45224;50.904;6.038;2023-10-31T06:14:56;98303.75;;;10.11;100.00
59419;BME280;45224;50.904;6.038;2023-10-31T06:16:27;98303.00;;;10.05;100.00
59419;BME280;45224;50.904;6.038;2023-10-31T06:17:58;98302.03;;;10.11;100.00
59419;BME280;45224;50.904;6.038;2023-10-31T06:19:28;98313.25;;;10.09;100.00
59419;BME280;45224;50.904;6.038;2023-10-31T06:20:58;98304.56;;;10.13;100.00
59419;BME280;45224;50.904;6.038;2023-10-31T06:22:29;98311.53;;;10.09;100.00
59419;BME280;45224;50.904;6.038;2023-10-31T06:23:59;98307.28;;;10.07;100.00
59419;BME280;45224;50.904;6.038;2023-10-31T06:25:30;98315.78;;;10.12;100.00
59419;BME280;45224;50.904;6.038;2023-10-31T06:27:00;98316.81;;;10.04;100.00
59419;BME280;45224;50.904;6.038;2023-10-31T06:28:31;98315.09;;;10.03;100.00
59419;BME280;45224;50.904;6.038;2023-10-31T06:30:05;98329.78;;;10.01;100.00
59419;BME280;45224;50.904;6.038;2023-10-31T06:31:35;98332.44;;;9.98;100.00
59419;BME280;45224;50.904;6.038;2023-10-31T06:33:06;98323.66;;;10.05;100.00
59419;BME280;45224;50.904;6.038;2023-10-31T06:34:37;98323.63;;;10.07;100.00
59419;BME280;45224;50.904;6.038;2023-10-31T06:36:08;98325.31;;;10.10;100.00
59419;BME280;45224;50.904;6.038;2023-10-31T06:37:39;98327.88;;;10.10;100.00
59419;BME280;45224;50.904;6.038;2023-10-31T06:39:09;98330.41;;;10.13;100.00
59419;BME280;45224;50.904;6.038;2023-10-31T06:40:40;98323.78;;;9.99;100.00
59419;BME280;45224;50.904;6.038;2023-10-31T06:42:10;98336.66;;;10.01;100.00
59419;BME280;45224;50.904;6.038;2023-10-31T06:43:40;98339.94;;;10.09;100.00
59419;BME280;45224;50.904;6.038;2023-10-31T06:45:11;98336.59;;;10.04;100.00
59419;BME280;45224;50.904;6.038;2023-10-31T06:46:41;98334.78;;;10.08;100.00
59419;BME280;45224;50.904;6.038;2023-10-31T06:48:12;98335.72;;;10.05;100.00
59419;BME280;45224;50.904;6.038;2023-10-31T06:49:42;98336.56;;;10.05;100.00
59419;BME280;45224;50.904;6.038;2023-10-31T06:51:13;98343.38;;;10.10;100.00
59419;BME280;45224;50.904;6.038;2023-10-31T06:52:43;98349.53;;;10.02;100.00
59419;BME280;45224;50.904;6.038;2023-10-31T06:54:14;98351.13;;;10.10;100.00
59419;BME280;45224;50.904;6.038;2023-10-31T06:55:44;98346.03;;;10.07;100.00
59419;BME280;45224;50.904;6.038;2023-10-31T06:57:15;98338.19;;;10.11;100.00
59419;BME280;45224;50.904;6.038;2023-10-31T06:58:46;98345.88;;;10.14;100.00
59419;BME280;45224;50.904;6.038;2023-10-31T07:00:17;98346.66;;;10.18;100.00
59419;BME280;45224;50.904;6.038;2023-10-31T07:01:47;98351.81;;;10.18;100.00
59419;BME280;45224;50.904;6.038;2023-10-31T07:03:18;98362.25;;;10.12;100.00
59419;BME280;45224;50.904;6.038;2023-10-31T07:04:48;98356.41;;;10.03;100.00
59419;BME280;45224;50.904;6.038;2023-10-31T07:06:19;98360.47;;;10.15;100.00
59419;BME280;45224;50.904;6.038;2023-10-31T07:07:51;98362.09;;;10.19;100.00
59419;BME280;45224;50.904;6.038;2023-10-31T07:09:22;98369.94;;;10.15;100.00
59419;BME280;45224;50.904;6.038;2023-10-31T07:10:52;98368.22;;;10.15;100.00
59419;BME280;45224;50.904;6.038;2023-10-31T07:12:23;98364.78;;;10.15;100.00
59419;BME280;45224;50.904;6.038;2023-10-31T07:13:53;98361.47;;;10.10;100.00
59419;BME280;45224;50.904;6.038;2023-10-31T07:15:24;98368.19;;;10.17;100.00
59419;BME280;45224;50.904;6.038;2023-10-31T07:16:56;98367.34;;;10.16;100.00
59419;BME280;45224;50.904;6.038;2023-10-31T07:18:27;98366.41;;;10.19;100.00
59419;BME280;45224;50.904;6.038;2023-10-31T07:19:57;98375.13;;;10.15;100.00
59419;BME280;45224;50.904;6.038;2023-10-31T07:21:27;98371.84;;;10.07;100.00
59419;BME280;45224;50.904;6.038;2023-10-31T07:22:58;98377.69;;;10.15;100.00
59419;BME280;45224;50.904;6.038;2023-10-31T07:24:28;98366.41;;;10.19;100.00
59419;BME280;45224;50.904;6.038;2023-10-31T07:25:59;98373.34;;;10.17;100.00
59419;BME280;45224;50.904;6.038;2023-10-31T07:27:29;98375.00;;;10.21;100.00
59419;BME280;45224;50.904;6.038;2023-10-31T07:29:00;98371.50;;;10.22;100.00
59419;BME280;45224;50.904;6.038;2023-10-31T07:30:30;98369.75;;;10.24;100.00
59419;BME280;45224;50.904;6.038;2023-10-31T07:32:01;98378.31;;;10.26;100.00
59419;BME280;45224;50.904;6.038;2023-10-31T07:33:31;98379.28;;;10.20;100.00
59419;BME280;45224;50.904;6.038;2023-10-31T07:35:02;98384.47;;;10.19;100.00
59419;BME280;45224;50.904;6.038;2023-10-31T07:36:32;98381.09;;;10.17;100.00
59419;BME280;45224;50.904;6.038;2023-10-31T07:38:05;98386.03;;;10.28;100.00
59419;BME280;45224;50.904;6.038;2023-10-31T07:39:35;98389.47;;;10.28;100.00
59419;BME280;45224;50.904;6.038;2023-10-31T07:41:06;98383.44;;;10.29;100.00
59419;BME280;45224;50.904;6.038;2023-10-31T07:42:36;98389.38;;;10.34;100.00
59419;BME280;45224;50.904;6.038;2023-10-31T07:44:06;98385.81;;;10.40;100.00
59419;BME280;45224;50.904;6.038;2023-10-31T07:45:37;98394.34;;;10.44;100.00
59419;BME280;45224;50.904;6.038;2023-10-31T07:47:07;98397.72;;;10.47;100.00
59419;BME280;45224;50.904;6.038;2023-10-31T07:48:38;98393.34;;;10.49;100.00
59419;BME280;45224;50.904;6.038;2023-10-31T07:50:09;98399.25;;;10.54;100.00
59419;BME280;45224;50.904;6.038;2023-10-31T07:51:40;98391.34;;;10.62;100.00
59419;BME280;45224;50.904;6.038;2023-10-31T07:53:10;98402.56;;;10.63;100.00
59419;BME280;45224;50.904;6.038;2023-10-31T07:54:41;98400.72;;;10.68;100.00